createdAt,value
2024-05-09T00:03:55.120Z,1.45
2024-05-09T00:08:56.939Z,1.50
2024-05-09T00:13:58.808Z,1.90
2024-05-09T00:19:00.703Z,1.83
2024-05-09T00:24:02.513Z,1.42
2024-05-09T00:29:04.418Z,1.30
2024-05-09T00:34:06.305Z,1.60
2024-05-09T00:39:08.286Z,1.20
2024-05-09T00:44:10.160Z,1.30
2024-05-09T00:49:12.814Z,1.60
2024-05-09T00:54:15.648Z,1.67
2024-05-09T00:59:17.716Z,1.70
2024-05-09T01:04:19.643Z,1.67
2024-05-09T01:09:21.504Z,1.58
2024-05-09T01:14:23.420Z,1.67
2024-05-09T01:19:29.381Z,1.98
2024-05-09T01:24:31.294Z,2.08
2024-05-09T01:29:33.344Z,1.30
2024-05-09T01:34:35.228Z,1.77
2024-05-09T01:39:37.139Z,2.00
2024-05-09T01:44:38.960Z,1.67
2024-05-09T01:49:40.887Z,2.10
2024-05-09T01:54:42.808Z,1.63
2024-05-09T01:59:44.654Z,1.98
2024-05-09T02:04:47.852Z,2.40
2024-05-09T02:09:53.370Z,2.05
2024-05-09T02:14:55.251Z,2.10
2024-05-09T02:19:57.112Z,1.92
2024-05-09T02:24:58.993Z,1.95
2024-05-09T02:30:00.856Z,1.88
2024-05-09T02:35:02.756Z,2.05
2024-05-09T02:40:05.803Z,2.40
2024-05-09T02:45:10.859Z,1.92
2024-05-09T02:50:16.211Z,2.67
2024-05-09T02:55:21.120Z,2.05
2024-05-09T03:00:29.539Z,1.98
2024-05-09T03:05:39.157Z,2.50
2024-05-09T03:10:41.181Z,1.92
2024-05-09T03:15:43.862Z,2.10
2024-05-09T03:20:45.847Z,2.17
2024-05-09T03:25:47.766Z,2.33
2024-05-09T03:30:49.612Z,2.42
2024-05-09T03:35:51.515Z,2.47
2024-05-09T03:40:53.446Z,2.15
2024-05-09T03:45:55.898Z,2.42
2024-05-09T03:50:57.741Z,2.20
2024-05-09T03:55:59.689Z,2.80
2024-05-09T04:01:01.674Z,2.65
2024-05-09T04:06:03.691Z,2.72
2024-05-09T04:11:06.772Z,2.58
2024-05-09T04:16:10.569Z,2.40
2024-05-09T04:21:12.380Z,3.13
2024-05-09T04:26:14.329Z,2.45
2024-05-09T04:31:16.149Z,2.38
2024-05-09T04:36:18.046Z,2.33
2024-05-09T04:41:20.419Z,2.42
2024-05-09T04:46:22.307Z,2.78
2024-05-09T04:51:24.207Z,2.40
2024-05-09T04:56:26.096Z,2.75
2024-05-09T05:01:30.472Z,2.58
2024-05-09T05:06:32.421Z,3.03
2024-05-09T05:11:34.331Z,2.58
2024-05-09T05:16:36.279Z,2.53
2024-05-09T05:21:40.766Z,2.50
2024-05-09T05:26:42.674Z,2.55
2024-05-09T05:31:44.729Z,2.55
2024-05-09T05:36:46.732Z,2.10
2024-05-09T05:41:51.514Z,2.45
2024-05-09T05:46:53.463Z,2.30
2024-05-09T05:51:55.322Z,2.28
2024-05-09T05:56:58.991Z,2.72
2024-05-09T06:02:00.862Z,2.72
2024-05-09T06:07:04.282Z,2.67
2024-05-09T06:12:08.494Z,2.30
2024-05-09T06:17:10.584Z,2.40
2024-05-09T06:22:12.555Z,2.55
2024-05-09T06:27:14.362Z,1.95
2024-05-09T06:32:16.402Z,1.73
2024-05-09T06:37:20.940Z,2.17
2024-05-09T06:42:23.087Z,1.73
2024-05-09T06:47:25.019Z,1.48
2024-05-09T06:52:26.981Z,1.70
2024-05-09T06:57:31.007Z,1.30
2024-05-09T07:02:32.951Z,1.90
2024-05-09T07:07:34.835Z,1.60
2024-05-09T07:12:36.655Z,1.45
2024-05-09T07:17:38.653Z,1.48
2024-05-09T07:22:40.564Z,1.75
2024-05-09T07:27:42.380Z,1.40
2024-05-09T07:32:45.128Z,1.88
2024-05-09T07:37:47.367Z,1.80
2024-05-09T07:42:49.428Z,1.58
2024-05-09T07:49:16.414Z,1.52
2024-05-09T07:53:37.275Z,1.30
2024-05-09T07:58:34.860Z,1.35
2024-05-09T08:03:37.766Z,1.40
2024-05-09T08:08:39.760Z,1.38
2024-05-09T08:13:41.617Z,1.90
2024-05-09T08:18:43.496Z,1.45
2024-05-09T08:23:45.380Z,1.42
2024-05-09T08:28:47.453Z,1.73
2024-05-09T08:33:51.776Z,1.40
2024-05-09T08:38:54.080Z,1.30
2024-05-09T08:43:55.989Z,1.85
2024-05-09T08:48:59.743Z,1.80
2024-05-09T08:54:01.782Z,1.83
2024-05-09T08:59:06.739Z,2.20
2024-05-09T09:04:10.766Z,1.90
2024-05-09T09:09:12.853Z,1.38
2024-05-09T09:14:14.725Z,1.40
2024-05-09T09:19:16.848Z,1.55
2024-05-09T09:24:18.854Z,1.85
2024-05-09T09:29:21.014Z,1.63
2024-05-09T09:34:28.121Z,1.50
2024-05-09T09:39:32.594Z,1.98
2024-05-09T09:44:37.339Z,1.88
2024-05-09T09:49:43.421Z,2.08
2024-05-09T09:54:48.310Z,2.55
2024-05-09T09:59:50.652Z,2.00
2024-05-09T10:04:52.762Z,2.20
2024-05-09T10:09:58.059Z,2.40
2024-05-09T10:15:07.400Z,1.92
2024-05-09T10:20:17.963Z,2.30
2024-05-09T10:25:24.066Z,2.10
2024-05-09T10:30:34.090Z,3.00
2024-05-09T10:35:38.123Z,2.38
2024-05-09T10:40:41.472Z,2.50
2024-05-09T10:45:43.335Z,2.30
2024-05-09T10:50:47.067Z,2.00
2024-05-09T10:55:58.506Z,2.63
2024-05-09T11:01:02.460Z,2.88
2024-05-09T11:06:06.798Z,2.53
2024-05-09T11:11:10.601Z,2.67
2024-05-09T11:16:21.319Z,2.20
2024-05-09T11:21:24.554Z,2.33
2024-05-09T11:26:29.481Z,2.67
2024-05-09T11:31:31.800Z,2.22
2024-05-09T11:36:33.820Z,2.90
2024-05-09T11:41:36.041Z,2.65
2024-05-09T11:46:37.847Z,2.03
2024-05-09T11:51:39.719Z,1.75
2024-05-09T11:56:41.603Z,2.05
2024-05-09T12:01:43.742Z,2.15
2024-05-09T12:06:46.374Z,2.25
2024-05-09T12:11:48.313Z,2.15
2024-05-09T12:16:50.285Z,2.30
2024-05-09T12:21:52.189Z,2.35
2024-05-09T12:26:54.461Z,2.28
2024-05-09T12:31:56.311Z,2.30
2024-05-09T12:36:58.370Z,1.75
2024-05-09T12:42:00.525Z,2.05
2024-05-09T12:47:02.462Z,2.10
2024-05-09T12:52:04.696Z,2.00
2024-05-09T12:57:06.599Z,2.03
2024-05-09T13:02:08.573Z,1.52
2024-05-09T13:07:10.626Z,2.08
2024-05-09T13:12:12.452Z,1.25
2024-05-09T13:17:14.281Z,1.65
2024-05-09T13:22:16.186Z,2.03
2024-05-09T13:27:18.059Z,1.58
2024-05-09T13:32:19.933Z,1.65
2024-05-09T13:37:21.891Z,2.15
2024-05-09T13:42:24.101Z,2.17
2024-05-09T13:47:26.138Z,2.42
2024-05-09T13:52:28.031Z,2.13
2024-05-09T13:57:31.126Z,1.85
2024-05-09T14:02:33.090Z,2.10
2024-05-09T14:07:35.034Z,2.60
2024-05-09T14:12:36.937Z,3.40
2024-05-09T14:17:38.935Z,2.50
2024-05-09T14:22:41.297Z,2.35
2024-05-09T14:27:43.563Z,2.00
2024-05-09T14:32:45.504Z,1.95
2024-05-09T14:37:47.460Z,2.47
2024-05-09T14:42:49.364Z,2.45
2024-05-09T14:47:51.521Z,2.83
2024-05-09T14:52:53.409Z,2.35
2024-05-09T14:57:55.558Z,2.80
2024-05-09T15:02:57.485Z,2.72
2024-05-09T15:07:59.811Z,3.35
2024-05-09T15:13:01.888Z,2.75
2024-05-09T15:18:07.146Z,2.80
2024-05-09T15:23:09.118Z,2.88
2024-05-09T15:28:11.110Z,2.67
2024-05-09T15:33:13.085Z,3.28
2024-05-09T15:38:16.348Z,2.97
2024-05-09T15:43:21.048Z,3.10
2024-05-09T15:48:23.146Z,3.03
2024-05-09T15:53:25.162Z,3.40
2024-05-09T15:58:28.291Z,2.90
2024-05-09T16:03:30.393Z,3.63
2024-05-09T16:08:32.487Z,3.20
2024-05-09T16:13:34.381Z,3.35
2024-05-09T16:18:36.420Z,3.15
2024-05-09T16:23:40.521Z,3.40
2024-05-09T16:28:42.480Z,3.53
2024-05-09T16:33:44.538Z,2.90
2024-05-09T16:38:46.515Z,3.63
2024-05-09T16:43:48.531Z,3.58
2024-05-09T16:48:51.154Z,3.70
2024-05-09T16:53:53.105Z,3.67
2024-05-09T16:58:55.433Z,3.33
2024-05-09T17:03:58.034Z,3.35
2024-05-09T17:09:08.299Z,3.45
2024-05-09T17:14:13.655Z,3.25
2024-05-09T17:19:15.586Z,3.40
2024-05-09T17:24:17.462Z,3.53
2024-05-09T17:29:21.700Z,3.40
2024-05-09T17:34:24.796Z,3.25
2024-05-09T17:39:27.013Z,3.72
2024-05-09T17:44:29.097Z,3.30
2024-05-09T17:49:31.016Z,3.33
2024-05-09T17:54:32.968Z,3.17
2024-05-09T17:59:34.826Z,3.50
2024-05-09T18:04:36.710Z,3.10
2024-05-09T18:09:38.580Z,3.20
2024-05-09T18:14:40.388Z,3.47
2024-05-09T18:19:42.273Z,3.60
2024-05-09T18:24:44.260Z,3.60
2024-05-09T18:29:46.093Z,3.47
2024-05-09T18:34:48.038Z,3.40
2024-05-09T18:39:50.124Z,3.53
2024-05-09T18:44:52.466Z,3.55
2024-05-09T18:49:54.380Z,3.63
2024-05-09T18:54:56.353Z,3.53
2024-05-09T18:59:58.213Z,3.45
2024-05-09T19:05:00.080Z,2.97
2024-05-09T19:10:02.214Z,4.55
2024-05-09T19:15:04.346Z,3.08
2024-05-09T19:20:09.115Z,3.35
2024-05-09T19:25:13.507Z,3.15
2024-05-09T19:30:25.019Z,4.20
2024-05-09T19:35:35.936Z,3.47
2024-05-09T19:40:38.059Z,3.60
2024-05-09T19:45:40.162Z,3.25
2024-05-09T19:50:44.339Z,4.10
2024-05-09T19:55:46.973Z,3.60
2024-05-09T20:00:49.315Z,3.10
2024-05-09T20:05:51.308Z,4.07
2024-05-09T20:10:53.879Z,3.60
2024-05-09T20:15:55.871Z,3.50
2024-05-09T20:20:57.866Z,4.00
2024-05-09T20:26:02.241Z,3.55
2024-05-09T20:31:04.287Z,3.25
2024-05-09T20:36:06.329Z,4.25
2024-05-09T20:41:08.366Z,3.47
2024-05-09T20:46:10.226Z,4.20
2024-05-09T20:51:12.170Z,4.07
2024-05-09T20:56:14.027Z,3.92
2024-05-09T21:01:15.988Z,4.68
2024-05-09T21:06:19.195Z,4.70
2024-05-09T21:11:22.973Z,5.43
2024-05-09T21:16:24.978Z,4.07
2024-05-09T21:21:26.954Z,5.25
2024-05-09T21:26:29.655Z,4.35
2024-05-09T21:31:31.540Z,5.65
2024-05-09T21:36:33.685Z,5.05
2024-05-09T21:41:35.888Z,4.18
2024-05-09T21:46:37.890Z,5.13
2024-05-09T21:51:39.909Z,4.15
2024-05-09T21:56:41.727Z,4.63
2024-05-09T22:01:43.733Z,6.60
2024-05-09T22:06:45.636Z,5.53
2024-05-09T22:11:48.147Z,5.50
2024-05-09T22:16:52.223Z,4.97
2024-05-09T22:21:55.522Z,6.35
2024-05-09T22:26:57.447Z,5.40
2024-05-09T22:31:59.248Z,5.57
2024-05-09T22:37:01.319Z,5.72
2024-05-09T22:42:03.688Z,5.57
2024-05-09T22:47:05.562Z,5.00
2024-05-09T22:52:07.806Z,6.07
2024-05-09T22:57:09.703Z,5.00
2024-05-09T23:02:11.638Z,5.32
2024-05-09T23:07:13.595Z,5.10
2024-05-09T23:12:17.746Z,6.00
2024-05-09T23:17:19.672Z,6.20
2024-05-09T23:22:21.572Z,5.85
2024-05-09T23:27:23.410Z,5.63
2024-05-09T23:32:25.638Z,5.57
2024-05-09T23:37:27.938Z,5.68
2024-05-09T23:42:30.493Z,5.78
2024-05-09T23:47:32.436Z,5.63
2024-05-09T23:52:34.387Z,5.82
2024-05-09T23:57:36.243Z,6.00
